createdAt,value
2019-05-03T00:02:27.464Z,100.00
2019-05-03T00:05:15.502Z,100.00
2019-05-03T00:07:47.835Z,100.00
2019-05-03T00:10:19.691Z,100.00
2019-05-03T00:12:52.744Z,100.00
2019-05-03T00:15:43.134Z,100.00
2019-05-03T00:18:14.700Z,100.00
2019-05-03T00:20:46.182Z,100.00
2019-05-03T00:23:18.593Z,100.00
2019-05-03T00:25:52.207Z,100.00
2019-05-03T00:28:24.507Z,100.00
2019-05-03T00:30:56.025Z,100.00
2019-05-03T00:33:27.798Z,100.00
2019-05-03T00:36:22.367Z,100.00
2019-05-03T00:38:57.243Z,100.00
2019-05-03T00:41:28.758Z,100.00
2019-05-03T00:44:02.105Z,100.00
2019-05-03T00:46:33.667Z,100.00
2019-05-03T00:49:05.287Z,100.00
2019-05-03T00:51:36.876Z,100.00
2019-05-03T00:54:10.136Z,100.00
2019-05-03T00:56:44.108Z,100.00
2019-05-03T00:59:14.999Z,100.00
2019-05-03T01:01:46.487Z,100.00
2019-05-03T01:04:18.270Z,100.00
2019-05-03T01:06:49.791Z,100.00
2019-05-03T01:09:23.803Z,100.00
2019-05-03T01:11:55.253Z,100.00
2019-05-03T01:14:26.744Z,100.00
2019-05-03T01:16:58.302Z,100.00
2019-05-03T01:19:31.947Z,100.00
2019-05-03T01:22:03.559Z,100.00
2019-05-03T01:24:35.045Z,100.00
2019-05-03T01:27:06.553Z,100.00
2019-05-03T01:29:39.485Z,100.00
2019-05-03T01:32:11.599Z,100.00
2019-05-03T01:34:43.165Z,100.00
2019-05-03T01:37:15.741Z,100.00
2019-05-03T01:39:47.214Z,100.00
2019-05-03T01:42:18.776Z,100.00
2019-05-03T01:44:52.087Z,100.00
2019-05-03T01:47:32.571Z,100.00
2019-05-03T01:50:15.088Z,100.00
2019-05-03T01:52:46.936Z,100.00
2019-05-03T01:55:18.555Z,100.00
2019-05-03T01:57:50.207Z,100.00
2019-05-03T02:00:25.898Z,100.00
2019-05-03T02:03:08.142Z,100.00
2019-05-03T02:05:43.764Z,100.00
2019-05-03T02:08:16.848Z,100.00
2019-05-03T02:10:48.678Z,100.00
2019-05-03T02:13:20.559Z,100.00
2019-05-03T02:15:52.779Z,100.00
2019-05-03T02:18:24.651Z,100.00
2019-05-03T02:20:56.315Z,100.00
2019-05-03T02:23:27.837Z,100.00
2019-05-03T02:25:59.369Z,100.00
2019-05-03T02:28:32.551Z,100.00
2019-05-03T02:31:04.200Z,100.00
2019-05-03T02:33:36.069Z,100.00
2019-05-03T02:36:07.655Z,100.00
2019-05-03T02:38:39.534Z,100.00
2019-05-03T02:41:13.521Z,100.00
2019-05-03T02:43:48.082Z,100.00
2019-05-03T02:46:38.087Z,100.00
2019-05-03T02:49:22.202Z,100.00
2019-05-03T02:51:55.502Z,100.00
2019-05-03T02:54:27.371Z,100.00
2019-05-03T02:56:59.688Z,100.00
2019-05-03T02:59:34.807Z,100.00
2019-05-03T03:02:07.683Z,100.00
2019-05-03T03:04:40.123Z,100.00
2019-05-03T03:07:12.107Z,100.00
2019-05-03T03:09:45.270Z,100.00
2019-05-03T03:12:18.818Z,100.00
2019-05-03T03:14:51.569Z,100.00
2019-05-03T03:17:25.680Z,100.00
2019-05-03T03:20:00.210Z,100.00
2019-05-03T03:22:36.318Z,100.00
2019-05-03T03:25:12.394Z,100.00
2019-05-03T03:27:46.526Z,100.00
2019-05-03T03:30:38.563Z,100.00
2019-05-03T03:33:17.502Z,100.00
2019-05-03T03:35:50.912Z,100.00
2019-05-03T03:38:26.092Z,100.00
2019-05-03T03:40:59.768Z,100.00
2019-05-03T03:43:35.501Z,100.00
2019-05-03T03:46:09.520Z,100.00
2019-05-03T03:48:46.007Z,100.00
2019-05-03T03:51:26.133Z,100.00
2019-05-03T03:54:00.713Z,100.00
2019-05-03T03:56:46.040Z,100.00
2019-05-03T03:59:09.085Z,100.00
2019-05-03T04:01:45.686Z,100.00
2019-05-03T04:04:17.530Z,100.00
2019-05-03T04:06:51.161Z,100.00
2019-05-03T04:09:25.558Z,100.00
2019-05-03T04:11:57.478Z,100.00
2019-05-03T04:14:36.578Z,100.00
2019-05-03T04:17:32.872Z,100.00
2019-05-03T04:20:05.185Z,100.00
2019-05-03T04:22:37.328Z,100.00
2019-05-03T04:25:10.525Z,100.00
2019-05-03T04:27:45.634Z,100.00
2019-05-03T04:30:17.745Z,100.00
2019-05-03T04:32:49.499Z,100.00
2019-05-03T04:35:22.328Z,100.00
2019-05-03T04:37:56.272Z,100.00
2019-05-03T04:40:30.908Z,100.00
2019-05-03T04:43:02.905Z,100.00
2019-05-03T04:45:36.702Z,100.00
2019-05-03T04:48:27.717Z,100.00
2019-05-03T04:50:59.788Z,100.00
2019-05-03T04:53:35.765Z,100.00
2019-05-03T04:56:07.028Z,100.00
2019-05-03T04:58:41.801Z,100.00
2019-05-03T05:01:15.763Z,100.00
2019-05-03T05:03:47.812Z,100.00
2019-05-03T05:06:19.704Z,100.00
2019-05-03T05:08:55.000Z,100.00
2019-05-03T05:11:27.900Z,100.00
2019-05-03T05:14:02.398Z,100.00
2019-05-03T05:16:39.412Z,100.00
2019-05-03T05:19:15.238Z,100.00
2019-05-03T05:21:51.045Z,100.00
2019-05-03T05:24:25.547Z,100.00
2019-05-03T05:27:28.787Z,100.00
2019-05-03T05:30:04.582Z,100.00
2019-05-03T05:32:37.587Z,100.00
2019-05-03T05:35:10.105Z,100.00
2019-05-03T05:37:41.895Z,100.00
2019-05-03T05:40:16.693Z,100.00
2019-05-03T05:42:49.850Z,100.00
2019-05-03T05:45:24.577Z,100.00
2019-05-03T05:48:02.219Z,100.00
2019-05-03T05:50:37.014Z,100.00
2019-05-03T05:53:10.748Z,100.00
2019-05-03T05:56:07.668Z,100.00
2019-05-03T05:58:47.697Z,100.00
2019-05-03T06:01:25.226Z,100.00
2019-05-03T06:03:57.592Z,100.00
2019-05-03T06:06:48.354Z,100.00
2019-05-03T06:09:40.245Z,100.00
2019-05-03T06:12:41.995Z,100.00
2019-05-03T06:15:34.497Z,99.74
2019-05-03T06:18:14.553Z,98.38
2019-05-03T06:21:09.635Z,95.10
2019-05-03T06:23:47.407Z,94.69
2019-05-03T06:26:44.325Z,92.63
2019-05-03T06:29:16.111Z,91.63
2019-05-03T06:32:21.534Z,89.87
2019-05-03T06:34:54.591Z,86.13
2019-05-03T06:37:28.490Z,87.20
2019-05-03T06:40:00.627Z,85.80
2019-05-03T06:42:32.317Z,82.08
2019-05-03T06:45:10.349Z,85.46
2019-05-03T06:47:40.369Z,83.35
2019-05-03T06:50:14.350Z,83.33
2019-05-03T06:52:45.664Z,82.19
2019-05-03T06:55:17.266Z,81.62
2019-05-03T06:57:49.863Z,80.80
2019-05-03T07:00:47.064Z,82.06
2019-05-03T07:03:37.495Z,81.39
2019-05-03T07:06:40.390Z,80.56
2019-05-03T07:09:30.351Z,82.61
2019-05-03T07:12:04.394Z,82.29
2019-05-03T07:14:37.020Z,81.89
2019-05-03T07:17:09.825Z,77.87
2019-05-03T07:19:42.503Z,77.24
2019-05-03T07:22:15.262Z,77.02
2019-05-03T07:24:47.497Z,76.83
2019-05-03T07:27:21.901Z,75.25
2019-05-03T07:29:55.467Z,78.40
2019-05-03T07:32:27.305Z,74.83
2019-05-03T07:34:59.554Z,71.62
2019-05-03T07:37:31.548Z,71.82
2019-05-03T07:40:04.712Z,68.06
2019-05-03T07:42:38.771Z,68.25
2019-05-03T07:45:10.896Z,70.13
2019-05-03T07:47:42.426Z,68.68
2019-05-03T07:50:15.283Z,70.24
2019-05-03T07:52:47.095Z,67.88
2019-05-03T07:55:21.446Z,68.98
2019-05-03T07:57:56.630Z,64.87
2019-05-03T08:00:29.143Z,64.61
2019-05-03T08:03:00.974Z,61.22
2019-05-03T08:05:32.568Z,59.42
2019-05-03T08:08:04.775Z,59.11
2019-05-03T08:10:37.843Z,57.68
2019-05-03T08:13:09.508Z,58.63
2019-05-03T08:15:41.785Z,58.41
2019-05-03T08:18:15.389Z,58.71
2019-05-03T08:20:47.235Z,57.69
2019-05-03T08:23:27.528Z,56.78
2019-05-03T08:25:55.462Z,55.47
2019-05-03T08:28:26.925Z,54.31
2019-05-03T08:31:15.763Z,54.50
2019-05-03T08:34:06.486Z,52.46
2019-05-03T08:36:58.505Z,51.51
2019-05-03T08:39:31.037Z,51.18
2019-05-03T08:42:06.318Z,48.50
2019-05-03T08:44:40.319Z,48.71
2019-05-03T08:47:12.214Z,49.17
2019-05-03T08:49:44.996Z,48.40
2019-05-03T08:52:21.490Z,47.30
2019-05-03T08:54:54.995Z,44.84
2019-05-03T08:57:27.551Z,46.75
2019-05-03T08:59:59.882Z,45.86
2019-05-03T09:02:31.627Z,47.84
2019-05-03T09:05:05.228Z,48.27
2019-05-03T09:07:37.303Z,44.40
2019-05-03T09:10:18.643Z,44.29
2019-05-03T09:13:08.338Z,45.85
2019-05-03T09:15:41.516Z,42.83
2019-05-03T09:18:17.380Z,41.07
2019-05-03T09:20:48.387Z,41.83
2019-05-03T09:23:23.238Z,40.28
2019-05-03T09:25:54.875Z,38.78
2019-05-03T09:28:29.283Z,38.61
2019-05-03T09:31:01.128Z,37.23
2019-05-03T09:33:35.645Z,36.92
2019-05-03T09:36:08.150Z,37.02
2019-05-03T09:38:40.570Z,37.44
2019-05-03T09:41:14.863Z,38.17
2019-05-03T09:43:46.334Z,36.89
2019-05-03T09:46:23.456Z,36.32
2019-05-03T09:49:10.336Z,37.60
2019-05-03T09:51:31.502Z,38.36
2019-05-03T09:54:14.942Z,38.18
2019-05-03T09:56:59.945Z,38.44
2019-05-03T09:59:34.963Z,37.59
2019-05-03T10:02:06.361Z,35.85
2019-05-03T10:04:39.888Z,37.23
2019-05-03T10:07:12.448Z,36.14
2019-05-03T10:09:55.253Z,36.39
2019-05-03T10:12:27.606Z,35.35
2019-05-03T10:15:01.761Z,35.32
2019-05-03T10:17:48.921Z,32.89
2019-05-03T10:20:25.033Z,31.93
2019-05-03T10:22:59.622Z,32.97
2019-05-03T10:25:32.437Z,33.14
2019-05-03T10:28:08.202Z,32.21
2019-05-03T10:30:41.570Z,31.24
2019-05-03T10:33:18.673Z,30.88
2019-05-03T10:35:51.846Z,30.72
2019-05-03T10:38:25.028Z,31.96
2019-05-03T10:40:59.852Z,31.77
2019-05-03T10:43:32.310Z,31.29
2019-05-03T10:46:05.146Z,31.77
2019-05-03T10:48:37.245Z,33.54
2019-05-03T10:51:09.307Z,31.31
2019-05-03T10:53:48.728Z,32.78
2019-05-03T10:56:32.413Z,35.79
2019-05-03T10:59:07.227Z,37.38
2019-05-03T11:01:56.035Z,34.32
2019-05-03T11:04:29.343Z,39.07
2019-05-03T11:07:01.494Z,42.75
2019-05-03T11:09:47.916Z,43.95
2019-05-03T11:12:09.050Z,45.04
2019-05-03T11:14:46.017Z,47.97
2019-05-03T11:17:17.819Z,49.47
2019-05-03T11:19:50.472Z,51.51
2019-05-03T11:22:27.119Z,51.60
2019-05-03T11:25:01.516Z,50.07
2019-05-03T11:27:45.762Z,50.03
2019-05-03T11:30:20.919Z,52.51
2019-05-03T11:33:02.294Z,54.30
2019-05-03T11:36:08.751Z,53.38
2019-05-03T11:38:42.830Z,53.12
2019-05-03T11:41:29.234Z,53.34
2019-05-03T11:43:49.261Z,53.71
2019-05-03T11:46:40.189Z,53.02
2019-05-03T11:49:12.255Z,52.46
2019-05-03T11:51:44.612Z,50.36
2019-05-03T11:54:18.524Z,50.73
2019-05-03T11:56:50.486Z,49.52
2019-05-03T11:59:22.166Z,48.72
2019-05-03T12:02:11.351Z,48.02
2019-05-03T12:04:45.223Z,48.22
2019-05-03T12:07:39.691Z,51.80
2019-05-03T12:10:17.559Z,54.09
2019-05-03T12:12:44.528Z,53.66
2019-05-03T12:15:17.426Z,53.82
2019-05-03T12:17:55.490Z,55.02
2019-05-03T12:20:28.527Z,53.79
2019-05-03T12:22:58.772Z,55.58
2019-05-03T12:25:31.780Z,57.31
2019-05-03T12:28:05.896Z,57.02
2019-05-03T12:30:38.305Z,56.13
2019-05-03T12:33:11.664Z,56.09
2019-05-03T12:35:43.342Z,57.21
2019-05-03T12:38:16.483Z,56.23
2019-05-03T12:40:48.292Z,55.09
2019-05-03T12:43:25.528Z,53.96
2019-05-03T12:45:56.836Z,53.76
2019-05-03T12:48:28.645Z,53.44
2019-05-03T12:51:00.768Z,54.75
2019-05-03T12:53:32.670Z,52.59
2019-05-03T12:56:11.435Z,53.56
2019-05-03T12:59:06.034Z,54.01
2019-05-03T13:01:56.419Z,55.46
2019-05-03T13:04:31.623Z,56.17
2019-05-03T13:07:12.145Z,56.75
2019-05-03T13:09:45.642Z,57.49
2019-05-03T13:12:19.559Z,57.95
2019-05-03T13:14:51.311Z,57.84
2019-05-03T13:17:41.432Z,59.01
2019-05-03T13:20:15.281Z,56.58
2019-05-03T13:22:47.063Z,56.98
2019-05-03T13:25:19.970Z,57.37
2019-05-03T13:27:54.697Z,56.04
2019-05-03T13:30:26.778Z,56.17
2019-05-03T13:32:58.293Z,56.57
2019-05-03T13:35:30.084Z,58.03
2019-05-03T13:38:02.060Z,59.13
2019-05-03T13:40:35.904Z,57.68
2019-05-03T13:43:07.744Z,59.49
2019-05-03T13:45:41.616Z,60.12
2019-05-03T13:48:15.343Z,61.17
2019-05-03T13:50:47.599Z,62.82
2019-05-03T13:53:19.093Z,64.99
2019-05-03T13:55:51.202Z,68.75
2019-05-03T13:58:22.797Z,71.51
2019-05-03T14:00:55.097Z,74.17
2019-05-03T14:03:30.402Z,77.10
2019-05-03T14:06:08.813Z,76.56
2019-05-03T14:08:37.560Z,76.34
2019-05-03T14:11:09.360Z,76.19
2019-05-03T14:13:41.236Z,75.71
2019-05-03T14:16:14.445Z,75.23
2019-05-03T14:18:48.859Z,74.29
2019-05-03T14:21:29.016Z,72.06
2019-05-03T14:24:11.420Z,71.80
2019-05-03T14:26:44.823Z,72.67
2019-05-03T14:29:19.743Z,72.68
2019-05-03T14:31:52.150Z,72.47
2019-05-03T14:34:25.705Z,71.44
2019-05-03T14:36:57.129Z,72.78
2019-05-03T14:39:28.760Z,72.43
2019-05-03T14:42:00.517Z,73.10
2019-05-03T14:44:32.316Z,72.27
2019-05-03T14:47:05.760Z,73.33
2019-05-03T14:49:39.290Z,72.87
2019-05-03T14:52:11.200Z,73.93
2019-05-03T14:54:47.139Z,72.20
2019-05-03T14:57:35.126Z,72.29
2019-05-03T15:00:25.968Z,71.41
2019-05-03T15:03:11.027Z,71.19
2019-05-03T15:05:42.524Z,72.19
2019-05-03T15:08:15.246Z,70.78
2019-05-03T15:10:47.542Z,70.62
2019-05-03T15:13:19.417Z,70.95
2019-05-03T15:15:51.285Z,70.87
2019-05-03T15:18:25.433Z,71.53
2019-05-03T15:20:57.747Z,72.03
2019-05-03T15:23:30.469Z,70.90
2019-05-03T15:26:02.422Z,72.37
2019-05-03T15:28:35.587Z,70.83
2019-05-03T15:31:08.046Z,71.06
2019-05-03T15:33:40.781Z,71.58
2019-05-03T15:36:12.514Z,73.10
2019-05-03T15:38:45.003Z,75.20
2019-05-03T15:41:17.696Z,77.92
2019-05-03T15:44:05.312Z,78.61
2019-05-03T15:46:51.514Z,80.51
2019-05-03T15:49:25.553Z,82.85
2019-05-03T15:51:57.102Z,84.32
2019-05-03T15:54:31.752Z,85.94
2019-05-03T15:57:04.979Z,86.03
2019-05-03T15:59:36.998Z,86.11
2019-05-03T16:02:09.847Z,84.45
2019-05-03T16:04:41.369Z,82.31
2019-05-03T16:07:14.439Z,79.32
2019-05-03T16:09:46.107Z,72.70
2019-05-03T16:12:17.674Z,72.90
2019-05-03T16:14:49.327Z,78.66
2019-05-03T16:17:20.952Z,78.13
2019-05-03T16:19:55.761Z,74.60
2019-05-03T16:22:27.109Z,73.56
2019-05-03T16:24:58.774Z,71.47
2019-05-03T16:27:49.914Z,68.78
2019-05-03T16:30:55.639Z,67.83
2019-05-03T16:33:28.608Z,67.55
2019-05-03T16:36:00.255Z,67.23
2019-05-03T16:38:32.436Z,66.28
2019-05-03T16:41:05.163Z,66.44
2019-05-03T16:43:37.742Z,68.26
2019-05-03T16:46:09.636Z,69.67
2019-05-03T16:48:41.634Z,71.07
2019-05-03T16:51:15.022Z,72.28
2019-05-03T16:53:46.921Z,72.85
2019-05-03T16:56:19.638Z,73.59
2019-05-03T16:58:55.067Z,74.15
2019-05-03T17:01:27.777Z,74.92
2019-05-03T17:04:20.887Z,75.22
2019-05-03T17:07:11.757Z,75.47
2019-05-03T17:09:54.283Z,74.58
2019-05-03T17:12:28.891Z,72.69
2019-05-03T17:15:01.787Z,72.55
2019-05-03T17:17:34.516Z,72.20
2019-05-03T17:20:06.788Z,72.15
2019-05-03T17:22:40.886Z,72.19
2019-05-03T17:25:15.051Z,72.57
2019-05-03T17:27:46.925Z,73.11
2019-05-03T17:30:20.204Z,74.64
2019-05-03T17:32:55.332Z,75.36
2019-05-03T17:35:29.637Z,76.79
2019-05-03T17:38:02.714Z,77.94
2019-05-03T17:41:05.128Z,79.71
2019-05-03T17:43:40.842Z,80.85
2019-05-03T17:46:12.544Z,81.34
2019-05-03T17:48:45.294Z,81.99
2019-05-03T17:51:35.067Z,82.01
2019-05-03T17:54:27.723Z,82.04
2019-05-03T17:57:04.503Z,80.85
2019-05-03T17:59:44.447Z,80.22
2019-05-03T18:02:33.124Z,78.90
2019-05-03T18:05:20.153Z,76.88
2019-05-03T18:08:05.854Z,75.96
2019-05-03T18:10:38.593Z,75.77
2019-05-03T18:13:10.191Z,74.60
2019-05-03T18:15:41.731Z,73.79
2019-05-03T18:18:13.294Z,72.44
2019-05-03T18:20:45.087Z,72.28
2019-05-03T18:23:16.687Z,71.97
2019-05-03T18:25:48.756Z,71.14
2019-05-03T18:28:20.324Z,70.88
2019-05-03T18:30:54.579Z,70.76
2019-05-03T18:33:25.783Z,71.29
2019-05-03T18:35:57.584Z,70.80
2019-05-03T18:38:30.834Z,71.03
2019-05-03T18:41:02.444Z,70.35
2019-05-03T18:43:39.921Z,70.22
2019-05-03T18:46:33.329Z,70.39
2019-05-03T18:49:04.765Z,70.22
2019-05-03T18:51:36.827Z,70.04
2019-05-03T18:54:08.633Z,70.32
2019-05-03T18:56:41.642Z,70.92
2019-05-03T18:59:14.644Z,71.28
2019-05-03T19:01:46.486Z,72.23
2019-05-03T19:04:34.051Z,71.95
2019-05-03T19:07:04.462Z,72.16
2019-05-03T19:09:47.265Z,73.00
2019-05-03T19:12:35.850Z,72.99
2019-05-03T19:15:08.096Z,73.68
2019-05-03T19:17:58.354Z,74.12
2019-05-03T19:20:31.648Z,73.38
2019-05-03T19:23:04.980Z,73.32
2019-05-03T19:25:46.252Z,73.50
2019-05-03T19:28:10.423Z,73.41
2019-05-03T19:30:44.383Z,72.95
2019-05-03T19:33:16.135Z,72.98
2019-05-03T19:35:47.835Z,73.48
2019-05-03T19:38:19.583Z,73.55
2019-05-03T19:40:51.372Z,73.70
2019-05-03T19:43:24.426Z,73.26
2019-05-03T19:45:56.117Z,73.27
2019-05-03T19:48:27.843Z,72.95
2019-05-03T19:50:59.385Z,73.16
2019-05-03T19:53:49.908Z,72.79
2019-05-03T19:56:23.060Z,73.03
2019-05-03T19:58:58.943Z,72.72
2019-05-03T20:01:58.297Z,72.41
2019-05-03T20:04:42.602Z,72.15
2019-05-03T20:07:29.119Z,72.46
2019-05-03T20:10:00.726Z,72.45
2019-05-03T20:12:32.305Z,72.12
2019-05-03T20:15:05.702Z,72.33
2019-05-03T20:17:37.542Z,72.97
2019-05-03T20:20:09.187Z,73.00
2019-05-03T20:22:41.073Z,72.86
2019-05-03T20:25:12.653Z,72.87
2019-05-03T20:27:44.728Z,73.21
2019-05-03T20:30:17.795Z,73.41
2019-05-03T20:32:49.266Z,73.90
2019-05-03T20:35:21.359Z,73.64
2019-05-03T20:37:52.997Z,74.25
2019-05-03T20:40:25.642Z,74.25
2019-05-03T20:43:15.824Z,74.88
2019-05-03T20:46:00.210Z,74.43
2019-05-03T20:48:31.806Z,75.15
2019-05-03T20:51:03.487Z,75.26
2019-05-03T20:53:35.035Z,75.24
2019-05-03T20:56:06.686Z,75.50
2019-05-03T20:58:38.177Z,75.97
2019-05-03T21:01:09.827Z,75.63
2019-05-03T21:03:41.297Z,75.71
2019-05-03T21:06:12.839Z,75.82
2019-05-03T21:08:52.494Z,76.21
2019-05-03T21:11:17.524Z,76.50
2019-05-03T21:13:49.191Z,76.51
2019-05-03T21:16:48.907Z,77.38
2019-05-03T21:19:35.280Z,77.98
2019-05-03T21:22:10.755Z,78.20
2019-05-03T21:24:56.093Z,78.96
2019-05-03T21:27:27.542Z,79.36
2019-05-03T21:29:59.030Z,79.56
2019-05-03T21:32:30.562Z,79.60
2019-05-03T21:35:02.040Z,79.70
2019-05-03T21:37:34.900Z,79.97
2019-05-03T21:40:07.494Z,80.72
2019-05-03T21:42:39.044Z,80.40
2019-05-03T21:45:11.899Z,80.76
2019-05-03T21:48:02.189Z,81.38
2019-05-03T21:50:35.304Z,81.09
2019-05-03T21:53:07.224Z,81.24
2019-05-03T21:55:40.266Z,81.18
2019-05-03T21:58:16.139Z,81.28
2019-05-03T22:00:59.722Z,81.21
2019-05-03T22:03:31.584Z,81.57
2019-05-03T22:06:04.179Z,82.26
2019-05-03T22:08:35.789Z,82.39
2019-05-03T22:11:07.371Z,82.08
2019-05-03T22:13:39.366Z,81.49
2019-05-03T22:16:19.170Z,80.92
2019-05-03T22:18:50.696Z,81.07
2019-05-03T22:21:34.706Z,81.13
2019-05-03T22:24:42.035Z,80.59
2019-05-03T22:27:16.551Z,80.64
2019-05-03T22:29:48.089Z,80.25
2019-05-03T22:32:19.747Z,80.00
2019-05-03T22:34:52.350Z,78.85
2019-05-03T22:37:25.255Z,78.83
2019-05-03T22:39:57.798Z,79.05
2019-05-03T22:42:29.268Z,78.72
2019-05-03T22:45:01.193Z,78.33
2019-05-03T22:47:32.823Z,77.99
2019-05-03T22:50:05.417Z,77.72
2019-05-03T22:52:37.700Z,78.01
2019-05-03T22:55:09.458Z,77.47
2019-05-03T22:57:41.096Z,77.49
2019-05-03T23:00:14.603Z,77.26
2019-05-03T23:02:47.805Z,77.64
2019-05-03T23:05:19.487Z,77.83
2019-05-03T23:07:51.279Z,78.02
2019-05-03T23:10:23.101Z,78.35
2019-05-03T23:12:54.825Z,77.99
2019-05-03T23:15:27.520Z,78.34
2019-05-03T23:17:59.167Z,78.59
2019-05-03T23:20:49.394Z,78.86
2019-05-03T23:23:38.061Z,78.97
2019-05-03T23:26:09.756Z,79.08
2019-05-03T23:28:41.427Z,79.57
2019-05-03T23:31:14.719Z,80.05
2019-05-03T23:33:47.288Z,80.31
2019-05-03T23:36:18.941Z,79.65
2019-05-03T23:38:50.491Z,79.38
2019-05-03T23:41:22.073Z,79.45
2019-05-03T23:43:53.606Z,79.36
2019-05-03T23:46:30.906Z,79.19
2019-05-03T23:49:02.744Z,79.50
2019-05-03T23:51:51.407Z,79.65
2019-05-03T23:54:24.672Z,79.20
2019-05-03T23:56:56.547Z,79.56
2019-05-03T23:59:28.079Z,79.69
